sensor_id;sensor_type;location;lat;lon;timestamp;P1;durP1;ratioP1;P2;durP2;ratioP2
53285;SDS011;39171;45.550;12.074;2022-12-10T00:02:50;6.47;;;5.53;;
53285;SDS011;39171;45.550;12.074;2022-12-10T00:08:58;6.43;;;5.70;;
53285;SDS011;39171;45.550;12.074;2022-12-10T00:15:00;6.15;;;5.32;;
53285;SDS011;39171;45.550;12.074;2022-12-10T00:21:09;5.68;;;4.82;;
53285;SDS011;39171;45.550;12.074;2022-12-10T00:27:12;5.82;;;4.82;;
53285;SDS011;39171;45.550;12.074;2022-12-10T00:33:19;5.75;;;4.60;;
53285;SDS011;39171;45.550;12.074;2022-12-10T00:39:20;5.93;;;4.97;;
53285;SDS011;39171;45.550;12.074;2022-12-10T00:45:22;6.88;;;5.45;;
53285;SDS011;39171;45.550;12.074;2022-12-10T00:51:24;5.43;;;4.78;;
53285;SDS011;39171;45.550;12.074;2022-12-10T00:57:27;6.43;;;5.13;;
53285;SDS011;39171;45.550;12.074;2022-12-10T01:03:28;5.20;;;4.68;;
53285;SDS011;39171;45.550;12.074;2022-12-10T01:09:30;5.78;;;4.95;;
53285;SDS011;39171;45.550;12.074;2022-12-10T01:15:32;6.18;;;5.25;;
53285;SDS011;39171;45.550;12.074;2022-12-10T01:21:38;6.75;;;5.90;;
53285;SDS011;39171;45.550;12.074;2022-12-10T01:27:40;8.15;;;6.70;;
53285;SDS011;39171;45.550;12.074;2022-12-10T01:33:41;7.00;;;5.97;;
53285;SDS011;39171;45.550;12.074;2022-12-10T01:39:43;7.78;;;6.03;;
53285;SDS011;39171;45.550;12.074;2022-12-10T01:45:45;8.35;;;6.60;;
53285;SDS011;39171;45.550;12.074;2022-12-10T01:51:47;7.18;;;6.38;;
53285;SDS011;39171;45.550;12.074;2022-12-10T01:57:53;6.90;;;6.20;;
53285;SDS011;39171;45.550;12.074;2022-12-10T02:10:10;6.55;;;5.90;;
53285;SDS011;39171;45.550;12.074;2022-12-10T02:16:37;7.25;;;6.50;;
53285;SDS011;39171;45.550;12.074;2022-12-10T02:22:54;8.35;;;6.55;;
53285;SDS011;39171;45.550;12.074;2022-12-10T02:29:10;8.45;;;7.22;;
53285;SDS011;39171;45.550;12.074;2022-12-10T02:35:25;8.45;;;7.25;;
53285;SDS011;39171;45.550;12.074;2022-12-10T02:41:32;8.30;;;6.95;;
53285;SDS011;39171;45.550;12.074;2022-12-10T02:47:42;9.98;;;7.50;;
53285;SDS011;39171;45.550;12.074;2022-12-10T02:53:47;9.45;;;7.80;;
53285;SDS011;39171;45.550;12.074;2022-12-10T03:12:24;10.10;;;8.07;;
53285;SDS011;39171;45.550;12.074;2022-12-10T03:18:31;10.48;;;8.15;;
53285;SDS011;39171;45.550;12.074;2022-12-10T03:24:35;9.32;;;7.75;;
53285;SDS011;39171;45.550;12.074;2022-12-10T03:30:37;10.05;;;8.32;;
53285;SDS011;39171;45.550;12.074;2022-12-10T03:36:41;11.57;;;9.73;;
53285;SDS011;39171;45.550;12.074;2022-12-10T03:42:44;10.82;;;8.98;;
53285;SDS011;39171;45.550;12.074;2022-12-10T03:48:46;11.02;;;9.00;;
53285;SDS011;39171;45.550;12.074;2022-12-10T03:54:47;10.95;;;9.30;;
53285;SDS011;39171;45.550;12.074;2022-12-10T04:00:49;11.43;;;8.55;;
53285;SDS011;39171;45.550;12.074;2022-12-10T04:06:51;11.48;;;8.73;;
53285;SDS011;39171;45.550;12.074;2022-12-10T04:12:52;9.57;;;8.57;;
53285;SDS011;39171;45.550;12.074;2022-12-10T04:19:14;11.27;;;8.63;;
53285;SDS011;39171;45.550;12.074;2022-12-10T04:25:17;11.52;;;9.52;;
53285;SDS011;39171;45.550;12.074;2022-12-10T04:31:38;11.10;;;9.40;;
53285;SDS011;39171;45.550;12.074;2022-12-10T04:37:40;13.63;;;10.38;;
53285;SDS011;39171;45.550;12.074;2022-12-10T04:43:41;11.52;;;9.02;;
53285;SDS011;39171;45.550;12.074;2022-12-10T04:49:43;11.13;;;8.93;;
53285;SDS011;39171;45.550;12.074;2022-12-10T04:55:45;12.98;;;10.15;;
53285;SDS011;39171;45.550;12.074;2022-12-10T05:01:46;13.18;;;10.50;;
53285;SDS011;39171;45.550;12.074;2022-12-10T05:07:48;11.25;;;8.93;;
53285;SDS011;39171;45.550;12.074;2022-12-10T05:13:49;12.80;;;9.93;;
53285;SDS011;39171;45.550;12.074;2022-12-10T05:19:52;13.00;;;10.05;;
53285;SDS011;39171;45.550;12.074;2022-12-10T05:32:05;11.93;;;9.80;;
53285;SDS011;39171;45.550;12.074;2022-12-10T05:38:07;12.52;;;9.90;;
53285;SDS011;39171;45.550;12.074;2022-12-10T05:44:09;10.73;;;8.60;;
53285;SDS011;39171;45.550;12.074;2022-12-10T05:50:11;12.57;;;10.25;;
53285;SDS011;39171;45.550;12.074;2022-12-10T05:56:14;11.80;;;9.20;;
53285;SDS011;39171;45.550;12.074;2022-12-10T06:02:17;13.52;;;11.23;;
53285;SDS011;39171;45.550;12.074;2022-12-10T06:08:19;17.65;;;13.85;;
53285;SDS011;39171;45.550;12.074;2022-12-10T06:14:21;15.02;;;11.68;;
53285;SDS011;39171;45.550;12.074;2022-12-10T06:20:23;16.15;;;12.38;;
53285;SDS011;39171;45.550;12.074;2022-12-10T06:26:25;16.98;;;12.60;;
53285;SDS011;39171;45.550;12.074;2022-12-10T06:32:27;16.67;;;12.45;;
53285;SDS011;39171;45.550;12.074;2022-12-10T06:38:28;18.58;;;13.40;;
53285;SDS011;39171;45.550;12.074;2022-12-10T06:44:29;20.55;;;14.82;;
53285;SDS011;39171;45.550;12.074;2022-12-10T06:50:31;18.42;;;13.10;;
53285;SDS011;39171;45.550;12.074;2022-12-10T06:56:32;17.92;;;12.60;;
53285;SDS011;39171;45.550;12.074;2022-12-10T07:02:34;19.73;;;12.93;;
53285;SDS011;39171;45.550;12.074;2022-12-10T07:08:36;21.67;;;14.23;;
53285;SDS011;39171;45.550;12.074;2022-12-10T07:14:37;20.98;;;14.38;;
53285;SDS011;39171;45.550;12.074;2022-12-10T07:20:39;20.13;;;13.00;;
53285;SDS011;39171;45.550;12.074;2022-12-10T07:26:41;22.63;;;14.90;;
53285;SDS011;39171;45.550;12.074;2022-12-10T07:32:45;23.23;;;13.85;;
53285;SDS011;39171;45.550;12.074;2022-12-10T07:38:46;20.20;;;13.85;;
53285;SDS011;39171;45.550;12.074;2022-12-10T07:44:48;23.35;;;14.73;;
53285;SDS011;39171;45.550;12.074;2022-12-10T07:50:55;21.25;;;14.07;;
53285;SDS011;39171;45.550;12.074;2022-12-10T07:57:01;20.13;;;12.98;;
53285;SDS011;39171;45.550;12.074;2022-12-10T08:03:02;23.00;;;14.13;;
53285;SDS011;39171;45.550;12.074;2022-12-10T08:09:04;24.23;;;15.00;;
53285;SDS011;39171;45.550;12.074;2022-12-10T08:15:05;23.50;;;15.70;;
53285;SDS011;39171;45.550;12.074;2022-12-10T08:21:09;24.38;;;15.18;;
53285;SDS011;39171;45.550;12.074;2022-12-10T08:27:15;22.83;;;15.30;;
53285;SDS011;39171;45.550;12.074;2022-12-10T08:33:17;24.48;;;15.88;;
53285;SDS011;39171;45.550;12.074;2022-12-10T08:39:18;24.83;;;15.18;;
53285;SDS011;39171;45.550;12.074;2022-12-10T08:45:20;22.80;;;13.98;;
53285;SDS011;39171;45.550;12.074;2022-12-10T08:51:21;24.35;;;15.05;;
53285;SDS011;39171;45.550;12.074;2022-12-10T08:57:23;19.35;;;13.23;;
53285;SDS011;39171;45.550;12.074;2022-12-10T09:03:25;17.60;;;12.70;;
53285;SDS011;39171;45.550;12.074;2022-12-10T09:09:27;18.40;;;11.40;;
53285;SDS011;39171;45.550;12.074;2022-12-10T09:15:28;17.33;;;11.10;;
53285;SDS011;39171;45.550;12.074;2022-12-10T09:21:31;18.00;;;10.65;;
53285;SDS011;39171;45.550;12.074;2022-12-10T09:27:33;12.90;;;9.60;;
53285;SDS011;39171;45.550;12.074;2022-12-10T09:33:34;13.52;;;9.63;;
53285;SDS011;39171;45.550;12.074;2022-12-10T09:39:37;13.43;;;8.88;;
53285;SDS011;39171;45.550;12.074;2022-12-10T09:45:49;11.65;;;8.43;;
53285;SDS011;39171;45.550;12.074;2022-12-10T09:52:13;9.43;;;8.15;;
53285;SDS011;39171;45.550;12.074;2022-12-10T09:58:19;9.35;;;7.80;;
53285;SDS011;39171;45.550;12.074;2022-12-10T10:04:23;9.02;;;7.78;;
53285;SDS011;39171;45.550;12.074;2022-12-10T10:10:26;10.07;;;7.90;;
53285;SDS011;39171;45.550;12.074;2022-12-10T10:16:35;10.73;;;8.15;;
53285;SDS011;39171;45.550;12.074;2022-12-10T10:22:53;9.00;;;7.57;;
53285;SDS011;39171;45.550;12.074;2022-12-10T10:29:02;9.32;;;7.47;;
53285;SDS011;39171;45.550;12.074;2022-12-10T10:35:09;10.82;;;9.00;;
53285;SDS011;39171;45.550;12.074;2022-12-10T10:41:28;11.32;;;9.88;;
53285;SDS011;39171;45.550;12.074;2022-12-10T10:47:46;12.13;;;9.80;;
53285;SDS011;39171;45.550;12.074;2022-12-10T10:53:52;11.50;;;9.15;;
53285;SDS011;39171;45.550;12.074;2022-12-10T11:00:02;14.68;;;10.23;;
53285;SDS011;39171;45.550;12.074;2022-12-10T11:06:06;12.68;;;9.77;;
53285;SDS011;39171;45.550;12.074;2022-12-10T11:18:36;14.45;;;10.43;;
53285;SDS011;39171;45.550;12.074;2022-12-10T11:24:45;12.75;;;9.35;;
53285;SDS011;39171;45.550;12.074;2022-12-10T11:30:51;12.45;;;8.95;;
53285;SDS011;39171;45.550;12.074;2022-12-10T11:37:17;16.55;;;9.95;;
53285;SDS011;39171;45.550;12.074;2022-12-10T11:49:57;12.45;;;9.52;;
53285;SDS011;39171;45.550;12.074;2022-12-10T12:02:36;11.77;;;8.05;;
53285;SDS011;39171;45.550;12.074;2022-12-10T12:09:03;17.73;;;12.82;;
53285;SDS011;39171;45.550;12.074;2022-12-10T12:21:31;14.73;;;11.05;;
53285;SDS011;39171;45.550;12.074;2022-12-10T12:27:41;12.85;;;10.05;;
53285;SDS011;39171;45.550;12.074;2022-12-10T12:46:21;13.23;;;9.20;;
53285;SDS011;39171;45.550;12.074;2022-12-10T13:05:01;11.07;;;7.85;;
53285;SDS011;39171;45.550;12.074;2022-12-10T13:19:29;10.73;;;7.60;;
53285;SDS011;39171;45.550;12.074;2022-12-10T13:25:40;12.93;;;8.43;;
53285;SDS011;39171;45.550;12.074;2022-12-10T13:31:57;11.07;;;7.90;;
53285;SDS011;39171;45.550;12.074;2022-12-10T13:38:15;10.65;;;7.38;;
53285;SDS011;39171;45.550;12.074;2022-12-10T13:51:18;8.20;;;6.50;;
53285;SDS011;39171;45.550;12.074;2022-12-10T13:57:56;7.55;;;5.88;;
53285;SDS011;39171;45.550;12.074;2022-12-10T14:10:27;8.27;;;6.22;;
53285;SDS011;39171;45.550;12.074;2022-12-10T14:16:33;8.35;;;6.05;;
53285;SDS011;39171;45.550;12.074;2022-12-10T14:22:51;9.05;;;6.30;;
53285;SDS011;39171;45.550;12.074;2022-12-10T14:29:21;8.02;;;5.90;;
53285;SDS011;39171;45.550;12.074;2022-12-10T14:35:24;7.97;;;6.13;;
53285;SDS011;39171;45.550;12.074;2022-12-10T14:41:30;8.05;;;6.32;;
53285;SDS011;39171;45.550;12.074;2022-12-10T14:47:36;7.43;;;6.18;;
53285;SDS011;39171;45.550;12.074;2022-12-10T14:53:39;8.73;;;5.93;;
53285;SDS011;39171;45.550;12.074;2022-12-10T15:05:56;7.10;;;6.40;;
53285;SDS011;39171;45.550;12.074;2022-12-10T15:12:02;6.18;;;5.30;;
53285;SDS011;39171;45.550;12.074;2022-12-10T15:32:22;8.68;;;6.95;;
53285;SDS011;39171;45.550;12.074;2022-12-10T15:38:31;10.00;;;7.38;;
53285;SDS011;39171;45.550;12.074;2022-12-10T15:44:37;9.10;;;7.18;;
53285;SDS011;39171;45.550;12.074;2022-12-10T15:50:46;8.60;;;7.13;;
53285;SDS011;39171;45.550;12.074;2022-12-10T15:56:50;8.93;;;7.20;;
53285;SDS011;39171;45.550;12.074;2022-12-10T16:08:57;8.00;;;6.43;;
53285;SDS011;39171;45.550;12.074;2022-12-10T16:15:04;8.93;;;6.68;;
53285;SDS011;39171;45.550;12.074;2022-12-10T16:21:43;8.27;;;7.03;;
53285;SDS011;39171;45.550;12.074;2022-12-10T16:27:50;9.35;;;7.47;;
53285;SDS011;39171;45.550;12.074;2022-12-10T16:33:53;9.80;;;7.97;;
53285;SDS011;39171;45.550;12.074;2022-12-10T16:39:57;10.07;;;8.15;;
53285;SDS011;39171;45.550;12.074;2022-12-10T16:45:59;10.93;;;8.10;;
53285;SDS011;39171;45.550;12.074;2022-12-10T16:52:01;10.23;;;7.97;;
53285;SDS011;39171;45.550;12.074;2022-12-10T16:58:04;9.60;;;7.63;;
53285;SDS011;39171;45.550;12.074;2022-12-10T17:04:10;9.70;;;8.23;;
53285;SDS011;39171;45.550;12.074;2022-12-10T17:10:12;11.60;;;8.80;;
53285;SDS011;39171;45.550;12.074;2022-12-10T17:16:21;9.82;;;8.27;;
53285;SDS011;39171;45.550;12.074;2022-12-10T17:29:40;10.15;;;7.78;;
53285;SDS011;39171;45.550;12.074;2022-12-10T17:35:52;11.88;;;8.45;;
53285;SDS011;39171;45.550;12.074;2022-12-10T17:41:55;9.18;;;7.53;;
53285;SDS011;39171;45.550;12.074;2022-12-10T17:47:59;11.35;;;8.65;;
53285;SDS011;39171;45.550;12.074;2022-12-10T17:54:05;10.63;;;9.07;;
53285;SDS011;39171;45.550;12.074;2022-12-10T18:00:10;10.52;;;8.07;;
53285;SDS011;39171;45.550;12.074;2022-12-10T18:06:20;12.02;;;8.85;;
53285;SDS011;39171;45.550;12.074;2022-12-10T18:12:28;11.10;;;8.82;;
53285;SDS011;39171;45.550;12.074;2022-12-10T18:18:32;13.73;;;10.70;;
53285;SDS011;39171;45.550;12.074;2022-12-10T18:24:34;12.70;;;10.07;;
53285;SDS011;39171;45.550;12.074;2022-12-10T18:30:36;11.38;;;8.95;;
53285;SDS011;39171;45.550;12.074;2022-12-10T18:36:45;10.95;;;9.40;;
53285;SDS011;39171;45.550;12.074;2022-12-10T18:42:55;10.00;;;8.18;;
53285;SDS011;39171;45.550;12.074;2022-12-10T18:48:58;8.37;;;6.70;;
53285;SDS011;39171;45.550;12.074;2022-12-10T18:55:03;9.57;;;6.93;;
53285;SDS011;39171;45.550;12.074;2022-12-10T19:01:16;6.95;;;5.72;;
53285;SDS011;39171;45.550;12.074;2022-12-10T19:07:19;7.00;;;5.10;;
53285;SDS011;39171;45.550;12.074;2022-12-10T19:13:22;5.15;;;4.10;;
53285;SDS011;39171;45.550;12.074;2022-12-10T19:19:24;5.82;;;4.28;;
53285;SDS011;39171;45.550;12.074;2022-12-10T19:25:31;3.80;;;3.08;;
53285;SDS011;39171;45.550;12.074;2022-12-10T19:31:41;5.05;;;3.00;;
53285;SDS011;39171;45.550;12.074;2022-12-10T19:37:48;3.72;;;2.90;;
53285;SDS011;39171;45.550;12.074;2022-12-10T19:43:50;3.05;;;2.35;;
53285;SDS011;39171;45.550;12.074;2022-12-10T19:49:52;3.72;;;2.80;;
53285;SDS011;39171;45.550;12.074;2022-12-10T19:55:58;3.63;;;2.55;;
53285;SDS011;39171;45.550;12.074;2022-12-10T20:01:59;3.90;;;2.55;;
53285;SDS011;39171;45.550;12.074;2022-12-10T20:08:01;3.10;;;2.10;;
53285;SDS011;39171;45.550;12.074;2022-12-10T20:14:03;3.55;;;2.28;;
53285;SDS011;39171;45.550;12.074;2022-12-10T20:20:05;3.63;;;2.40;;
53285;SDS011;39171;45.550;12.074;2022-12-10T20:33:21;4.00;;;2.50;;
53285;SDS011;39171;45.550;12.074;2022-12-10T20:39:24;3.45;;;2.40;;
53285;SDS011;39171;45.550;12.074;2022-12-10T20:45:39;2.97;;;2.20;;
53285;SDS011;39171;45.550;12.074;2022-12-10T20:52:35;3.63;;;2.15;;
53285;SDS011;39171;45.550;12.074;2022-12-10T21:00:55;2.55;;;1.88;;
53285;SDS011;39171;45.550;12.074;2022-12-10T21:07:02;3.33;;;2.35;;
53285;SDS011;39171;45.550;12.074;2022-12-10T21:13:04;3.58;;;2.22;;
53285;SDS011;39171;45.550;12.074;2022-12-10T21:26:47;4.20;;;3.00;;
53285;SDS011;39171;45.550;12.074;2022-12-10T21:32:49;5.32;;;3.17;;
53285;SDS011;39171;45.550;12.074;2022-12-10T21:38:51;4.18;;;2.78;;
53285;SDS011;39171;45.550;12.074;2022-12-10T21:44:58;3.78;;;2.70;;
53285;SDS011;39171;45.550;12.074;2022-12-10T21:51:00;4.18;;;2.75;;
53285;SDS011;39171;45.550;12.074;2022-12-10T21:57:02;3.78;;;2.78;;
53285;SDS011;39171;45.550;12.074;2022-12-10T22:03:04;3.92;;;2.75;;
53285;SDS011;39171;45.550;12.074;2022-12-10T22:09:07;3.95;;;2.80;;
53285;SDS011;39171;45.550;12.074;2022-12-10T22:15:10;4.35;;;2.75;;
53285;SDS011;39171;45.550;12.074;2022-12-10T22:21:12;3.97;;;2.70;;
53285;SDS011;39171;45.550;12.074;2022-12-10T22:27:14;4.28;;;3.03;;
53285;SDS011;39171;45.550;12.074;2022-12-10T22:33:16;3.47;;;2.70;;
53285;SDS011;39171;45.550;12.074;2022-12-10T22:39:18;5.68;;;3.30;;
53285;SDS011;39171;45.550;12.074;2022-12-10T22:45:20;4.55;;;3.30;;
53285;SDS011;39171;45.550;12.074;2022-12-10T22:51:22;4.10;;;3.30;;
53285;SDS011;39171;45.550;12.074;2022-12-10T22:57:23;4.93;;;3.42;;
53285;SDS011;39171;45.550;12.074;2022-12-10T23:03:25;4.75;;;3.03;;
53285;SDS011;39171;45.550;12.074;2022-12-10T23:09:28;3.70;;;2.88;;
53285;SDS011;39171;45.550;12.074;2022-12-10T23:15:30;4.95;;;3.15;;
53285;SDS011;39171;45.550;12.074;2022-12-10T23:21:32;3.65;;;2.72;;
53285;SDS011;39171;45.550;12.074;2022-12-10T23:27:34;4.28;;;2.78;;
53285;SDS011;39171;45.550;12.074;2022-12-10T23:33:36;3.83;;;2.80;;
53285;SDS011;39171;45.550;12.074;2022-12-10T23:39:38;3.40;;;2.33;;
53285;SDS011;39171;45.550;12.074;2022-12-10T23:45:40;3.75;;;2.60;;
53285;SDS011;39171;45.550;12.074;2022-12-10T23:51:42;3.97;;;2.65;;
53285;SDS011;39171;45.550;12.074;2022-12-10T23:57:44;4.03;;;2.67;;
